sensor_id;sensor_type;location;lat;lon;timestamp;P1;durP1;ratioP1;P2;durP2;ratioP2
44145;SDS011;29809;52.432;4.780;2022-12-10T00:01:31;13.00;;;11.63;;
44145;SDS011;29809;52.432;4.780;2022-12-10T00:03:56;12.98;;;11.68;;
44145;SDS011;29809;52.432;4.780;2022-12-10T00:06:23;13.02;;;11.73;;
44145;SDS011;29809;52.432;4.780;2022-12-10T00:08:49;12.35;;;11.15;;
44145;SDS011;29809;52.432;4.780;2022-12-10T00:11:15;13.05;;;11.75;;
44145;SDS011;29809;52.432;4.780;2022-12-10T00:13:40;13.02;;;11.73;;
44145;SDS011;29809;52.432;4.780;2022-12-10T00:16:08;13.10;;;11.90;;
44145;SDS011;29809;52.432;4.780;2022-12-10T00:18:34;15.80;;;11.13;;
44145;SDS011;29809;52.432;4.780;2022-12-10T00:21:01;12.98;;;11.68;;
44145;SDS011;29809;52.432;4.780;2022-12-10T00:23:27;13.18;;;11.77;;
44145;SDS011;29809;52.432;4.780;2022-12-10T00:25:52;15.05;;;12.77;;
44145;SDS011;29809;52.432;4.780;2022-12-10T00:28:17;16.05;;;13.32;;
44145;SDS011;29809;52.432;4.780;2022-12-10T00:30:42;14.57;;;12.90;;
44145;SDS011;29809;52.432;4.780;2022-12-10T00:33:07;13.55;;;12.15;;
44145;SDS011;29809;52.432;4.780;2022-12-10T00:35:36;14.52;;;13.00;;
44145;SDS011;29809;52.432;4.780;2022-12-10T00:38:01;13.85;;;12.40;;
44145;SDS011;29809;52.432;4.780;2022-12-10T00:40:27;14.90;;;13.25;;
44145;SDS011;29809;52.432;4.780;2022-12-10T00:42:53;15.05;;;13.45;;
44145;SDS011;29809;52.432;4.780;2022-12-10T00:45:18;17.63;;;13.25;;
44145;SDS011;29809;52.432;4.780;2022-12-10T00:47:43;15.60;;;13.90;;
44145;SDS011;29809;52.432;4.780;2022-12-10T00:50:09;15.13;;;13.63;;
44145;SDS011;29809;52.432;4.780;2022-12-10T00:52:34;14.45;;;12.95;;
44145;SDS011;29809;52.432;4.780;2022-12-10T00:54:59;16.60;;;13.85;;
44145;SDS011;29809;52.432;4.780;2022-12-10T00:57:24;17.52;;;14.65;;
44145;SDS011;29809;52.432;4.780;2022-12-10T00:59:50;15.98;;;14.27;;
44145;SDS011;29809;52.432;4.780;2022-12-10T01:02:15;18.50;;;15.25;;
44145;SDS011;29809;52.432;4.780;2022-12-10T01:04:40;15.70;;;13.85;;
44145;SDS011;29809;52.432;4.780;2022-12-10T01:07:05;18.83;;;15.63;;
44145;SDS011;29809;52.432;4.780;2022-12-10T01:09:31;17.10;;;15.30;;
44145;SDS011;29809;52.432;4.780;2022-12-10T01:11:57;17.93;;;16.03;;
44145;SDS011;29809;52.432;4.780;2022-12-10T01:14:24;17.92;;;15.57;;
44145;SDS011;29809;52.432;4.780;2022-12-10T01:16:50;17.40;;;14.25;;
44145;SDS011;29809;52.432;4.780;2022-12-10T01:19:15;18.25;;;15.52;;
44145;SDS011;29809;52.432;4.780;2022-12-10T01:21:40;18.33;;;15.43;;
44145;SDS011;29809;52.432;4.780;2022-12-10T01:24:06;19.97;;;16.33;;
44145;SDS011;29809;52.432;4.780;2022-12-10T01:26:32;17.05;;;15.25;;
44145;SDS011;29809;52.432;4.780;2022-12-10T01:28:58;17.73;;;15.70;;
44145;SDS011;29809;52.432;4.780;2022-12-10T01:31:28;19.20;;;15.33;;
44145;SDS011;29809;52.432;4.780;2022-12-10T01:33:54;18.35;;;15.82;;
44145;SDS011;29809;52.432;4.780;2022-12-10T01:36:24;15.63;;;14.00;;
44145;SDS011;29809;52.432;4.780;2022-12-10T01:38:50;18.50;;;15.77;;
44145;SDS011;29809;52.432;4.780;2022-12-10T01:41:17;16.13;;;14.33;;
44145;SDS011;29809;52.432;4.780;2022-12-10T01:43:56;17.33;;;15.47;;
44145;SDS011;29809;52.432;4.780;2022-12-10T01:46:22;15.85;;;13.88;;
44145;SDS011;29809;52.432;4.780;2022-12-10T01:48:48;16.80;;;14.90;;
44145;SDS011;29809;52.432;4.780;2022-12-10T01:51:14;15.87;;;14.17;;
44145;SDS011;29809;52.432;4.780;2022-12-10T01:53:40;17.15;;;14.70;;
44145;SDS011;29809;52.432;4.780;2022-12-10T01:56:05;16.60;;;14.17;;
44145;SDS011;29809;52.432;4.780;2022-12-10T01:58:30;17.00;;;14.70;;
44145;SDS011;29809;52.432;4.780;2022-12-10T02:03:25;15.52;;;13.80;;
44145;SDS011;29809;52.432;4.780;2022-12-10T02:05:58;15.27;;;13.23;;
44145;SDS011;29809;52.432;4.780;2022-12-10T02:08:29;16.60;;;14.37;;
44145;SDS011;29809;52.432;4.780;2022-12-10T02:11:16;16.93;;;14.77;;
44145;SDS011;29809;52.432;4.780;2022-12-10T02:13:45;14.63;;;13.13;;
44145;SDS011;29809;52.432;4.780;2022-12-10T02:16:14;15.63;;;13.77;;
44145;SDS011;29809;52.432;4.780;2022-12-10T02:18:50;14.55;;;12.93;;
44145;SDS011;29809;52.432;4.780;2022-12-10T02:21:19;13.63;;;12.17;;
44145;SDS011;29809;52.432;4.780;2022-12-10T02:23:49;13.87;;;12.37;;
44145;SDS011;29809;52.432;4.780;2022-12-10T02:26:35;12.90;;;11.57;;
44145;SDS011;29809;52.432;4.780;2022-12-10T02:29:12;13.43;;;11.97;;
44145;SDS011;29809;52.432;4.780;2022-12-10T02:31:46;13.73;;;12.33;;
44145;SDS011;29809;52.432;4.780;2022-12-10T02:34:13;13.53;;;12.13;;
44145;SDS011;29809;52.432;4.780;2022-12-10T02:36:41;13.80;;;12.32;;
44145;SDS011;29809;52.432;4.780;2022-12-10T02:39:08;13.32;;;11.93;;
44145;SDS011;29809;52.432;4.780;2022-12-10T02:41:35;14.33;;;12.60;;
44145;SDS011;29809;52.432;4.780;2022-12-10T02:44:03;12.70;;;11.33;;
44145;SDS011;29809;52.432;4.780;2022-12-10T02:46:29;14.87;;;13.30;;
44145;SDS011;29809;52.432;4.780;2022-12-10T02:48:56;11.63;;;10.38;;
44145;SDS011;29809;52.432;4.780;2022-12-10T02:51:22;12.93;;;11.63;;
44145;SDS011;29809;52.432;4.780;2022-12-10T02:53:58;12.27;;;10.97;;
44145;SDS011;29809;52.432;4.780;2022-12-10T02:56:26;12.87;;;11.53;;
44145;SDS011;29809;52.432;4.780;2022-12-10T03:01:33;12.67;;;11.40;;
44145;SDS011;29809;52.432;4.780;2022-12-10T03:04:46;13.47;;;12.13;;
44145;SDS011;29809;52.432;4.780;2022-12-10T03:06:55;13.20;;;11.83;;
44145;SDS011;29809;52.432;4.780;2022-12-10T03:09:45;13.13;;;11.73;;
44145;SDS011;29809;52.432;4.780;2022-12-10T03:12:31;13.50;;;12.13;;
44145;SDS011;29809;52.432;4.780;2022-12-10T03:14:56;13.70;;;12.07;;
44145;SDS011;29809;52.432;4.780;2022-12-10T03:17:23;13.63;;;12.27;;
44145;SDS011;29809;52.432;4.780;2022-12-10T03:19:48;15.00;;;13.40;;
44145;SDS011;29809;52.432;4.780;2022-12-10T03:22:15;15.45;;;13.73;;
44145;SDS011;29809;52.432;4.780;2022-12-10T03:24:43;15.20;;;13.43;;
44145;SDS011;29809;52.432;4.780;2022-12-10T03:27:08;15.77;;;14.07;;
44145;SDS011;29809;52.432;4.780;2022-12-10T03:29:35;17.67;;;14.93;;
44145;SDS011;29809;52.432;4.780;2022-12-10T03:32:02;16.07;;;14.47;;
44145;SDS011;29809;52.432;4.780;2022-12-10T03:34:27;18.53;;;16.50;;
44145;SDS011;29809;52.432;4.780;2022-12-10T03:36:53;17.43;;;15.60;;
44145;SDS011;29809;52.432;4.780;2022-12-10T03:39:18;17.60;;;15.77;;
44145;SDS011;29809;52.432;4.780;2022-12-10T03:41:44;18.83;;;16.93;;
44145;SDS011;29809;52.432;4.780;2022-12-10T03:44:09;17.95;;;16.02;;
44145;SDS011;29809;52.432;4.780;2022-12-10T03:46:34;20.00;;;17.60;;
44145;SDS011;29809;52.432;4.780;2022-12-10T03:49:00;19.17;;;17.13;;
44145;SDS011;29809;52.432;4.780;2022-12-10T03:51:25;18.20;;;16.30;;
44145;SDS011;29809;52.432;4.780;2022-12-10T03:53:50;19.40;;;17.30;;
44145;SDS011;29809;52.432;4.780;2022-12-10T03:56:16;17.73;;;15.83;;
44145;SDS011;29809;52.432;4.780;2022-12-10T03:58:42;18.77;;;16.73;;
44145;SDS011;29809;52.432;4.780;2022-12-10T04:01:07;18.83;;;16.33;;
44145;SDS011;29809;52.432;4.780;2022-12-10T04:03:36;18.43;;;16.47;;
44145;SDS011;29809;52.432;4.780;2022-12-10T04:06:05;18.07;;;16.20;;
44145;SDS011;29809;52.432;4.780;2022-12-10T04:08:31;19.73;;;16.70;;
44145;SDS011;29809;52.432;4.780;2022-12-10T04:11:01;18.80;;;16.80;;
44145;SDS011;29809;52.432;4.780;2022-12-10T04:13:27;18.50;;;16.53;;
44145;SDS011;29809;52.432;4.780;2022-12-10T04:16:10;17.23;;;15.50;;
44145;SDS011;29809;52.432;4.780;2022-12-10T04:18:51;17.97;;;16.07;;
44145;SDS011;29809;52.432;4.780;2022-12-10T04:21:16;17.43;;;15.60;;
44145;SDS011;29809;52.432;4.780;2022-12-10T04:24:00;18.95;;;16.88;;
44145;SDS011;29809;52.432;4.780;2022-12-10T04:26:44;17.60;;;15.73;;
44145;SDS011;29809;52.432;4.780;2022-12-10T04:29:20;16.87;;;15.07;;
44145;SDS011;29809;52.432;4.780;2022-12-10T04:31:45;19.20;;;15.88;;
44145;SDS011;29809;52.432;4.780;2022-12-10T04:34:10;17.37;;;15.57;;
44145;SDS011;29809;52.432;4.780;2022-12-10T04:36:36;16.77;;;15.07;;
44145;SDS011;29809;52.432;4.780;2022-12-10T04:39:01;17.30;;;15.43;;
44145;SDS011;29809;52.432;4.780;2022-12-10T04:41:26;16.67;;;14.97;;
44145;SDS011;29809;52.432;4.780;2022-12-10T04:43:52;15.83;;;14.17;;
44145;SDS011;29809;52.432;4.780;2022-12-10T04:46:17;17.10;;;15.40;;
44145;SDS011;29809;52.432;4.780;2022-12-10T04:48:42;15.83;;;14.23;;
44145;SDS011;29809;52.432;4.780;2022-12-10T04:51:07;17.20;;;15.43;;
44145;SDS011;29809;52.432;4.780;2022-12-10T04:53:33;16.37;;;14.67;;
44145;SDS011;29809;52.432;4.780;2022-12-10T04:55:58;15.73;;;14.13;;
44145;SDS011;29809;52.432;4.780;2022-12-10T04:58:23;16.50;;;14.70;;
44145;SDS011;29809;52.432;4.780;2022-12-10T05:00:48;15.63;;;14.03;;
44145;SDS011;29809;52.432;4.780;2022-12-10T05:03:14;16.73;;;14.27;;
44145;SDS011;29809;52.432;4.780;2022-12-10T05:05:39;16.93;;;15.13;;
44145;SDS011;29809;52.432;4.780;2022-12-10T05:08:04;16.47;;;14.77;;
44145;SDS011;29809;52.432;4.780;2022-12-10T05:10:30;15.63;;;14.03;;
44145;SDS011;29809;52.432;4.780;2022-12-10T05:12:55;15.00;;;13.50;;
44145;SDS011;29809;52.432;4.780;2022-12-10T05:15:21;14.17;;;12.77;;
44145;SDS011;29809;52.432;4.780;2022-12-10T05:17:46;15.17;;;13.67;;
44145;SDS011;29809;52.432;4.780;2022-12-10T05:20:11;14.73;;;13.27;;
44145;SDS011;29809;52.432;4.780;2022-12-10T05:22:36;14.87;;;13.47;;
44145;SDS011;29809;52.432;4.780;2022-12-10T05:25:20;14.47;;;13.07;;
44145;SDS011;29809;52.432;4.780;2022-12-10T05:27:46;15.93;;;14.33;;
44145;SDS011;29809;52.432;4.780;2022-12-10T05:30:11;15.93;;;14.33;;
44145;SDS011;29809;52.432;4.780;2022-12-10T05:32:36;15.07;;;13.40;;
44145;SDS011;29809;52.432;4.780;2022-12-10T05:35:02;15.13;;;13.63;;
44145;SDS011;29809;52.432;4.780;2022-12-10T05:37:27;14.37;;;12.97;;
44145;SDS011;29809;52.432;4.780;2022-12-10T05:39:53;14.23;;;12.83;;
44145;SDS011;29809;52.432;4.780;2022-12-10T05:42:19;13.93;;;12.53;;
44145;SDS011;29809;52.432;4.780;2022-12-10T05:44:44;14.73;;;13.33;;
44145;SDS011;29809;52.432;4.780;2022-12-10T05:47:10;14.53;;;13.03;;
44145;SDS011;29809;52.432;4.780;2022-12-10T05:49:35;14.73;;;13.23;;
44145;SDS011;29809;52.432;4.780;2022-12-10T05:52:00;13.20;;;11.97;;
44145;SDS011;29809;52.432;4.780;2022-12-10T05:54:25;12.90;;;11.70;;
44145;SDS011;29809;52.432;4.780;2022-12-10T05:56:51;14.37;;;12.87;;
44145;SDS011;29809;52.432;4.780;2022-12-10T05:59:16;13.33;;;12.03;;
44145;SDS011;29809;52.432;4.780;2022-12-10T06:01:41;15.23;;;12.93;;
44145;SDS011;29809;52.432;4.780;2022-12-10T06:04:06;13.13;;;11.83;;
44145;SDS011;29809;52.432;4.780;2022-12-10T06:06:33;13.23;;;11.90;;
44145;SDS011;29809;52.432;4.780;2022-12-10T06:08:59;13.53;;;12.23;;
44145;SDS011;29809;52.432;4.780;2022-12-10T06:11:24;13.07;;;11.87;;
44145;SDS011;29809;52.432;4.780;2022-12-10T06:13:51;12.73;;;11.53;;
44145;SDS011;29809;52.432;4.780;2022-12-10T06:16:16;11.80;;;10.70;;
44145;SDS011;29809;52.432;4.780;2022-12-10T06:18:41;12.50;;;11.30;;
44145;SDS011;29809;52.432;4.780;2022-12-10T06:21:08;12.60;;;11.37;;
44145;SDS011;29809;52.432;4.780;2022-12-10T06:23:34;11.80;;;10.60;;
44145;SDS011;29809;52.432;4.780;2022-12-10T06:26:03;12.07;;;10.97;;
44145;SDS011;29809;52.432;4.780;2022-12-10T06:28:28;12.17;;;11.00;;
44145;SDS011;29809;52.432;4.780;2022-12-10T06:30:53;12.13;;;11.03;;
44145;SDS011;29809;52.432;4.780;2022-12-10T06:33:18;12.07;;;10.87;;
44145;SDS011;29809;52.432;4.780;2022-12-10T06:35:44;12.60;;;11.33;;
44145;SDS011;29809;52.432;4.780;2022-12-10T06:38:09;13.23;;;10.77;;
44145;SDS011;29809;52.432;4.780;2022-12-10T06:40:34;12.60;;;11.10;;
44145;SDS011;29809;52.432;4.780;2022-12-10T06:42:59;11.90;;;10.70;;
44145;SDS011;29809;52.432;4.780;2022-12-10T06:45:25;12.97;;;10.23;;
44145;SDS011;29809;52.432;4.780;2022-12-10T06:47:50;11.47;;;10.30;;
44145;SDS011;29809;52.432;4.780;2022-12-10T06:50:15;12.07;;;10.77;;
44145;SDS011;29809;52.432;4.780;2022-12-10T06:52:40;11.93;;;10.73;;
44145;SDS011;29809;52.432;4.780;2022-12-10T06:55:06;12.03;;;10.83;;
44145;SDS011;29809;52.432;4.780;2022-12-10T06:57:31;11.80;;;10.60;;
44145;SDS011;29809;52.432;4.780;2022-12-10T06:59:56;13.43;;;9.53;;
44145;SDS011;29809;52.432;4.780;2022-12-10T07:02:22;11.17;;;10.07;;
44145;SDS011;29809;52.432;4.780;2022-12-10T07:04:47;10.63;;;9.63;;
44145;SDS011;29809;52.432;4.780;2022-12-10T07:07:12;11.40;;;10.23;;
44145;SDS011;29809;52.432;4.780;2022-12-10T07:09:37;10.70;;;9.60;;
44145;SDS011;29809;52.432;4.780;2022-12-10T07:12:03;12.07;;;10.80;;
44145;SDS011;29809;52.432;4.780;2022-12-10T07:14:28;11.00;;;9.90;;
44145;SDS011;29809;52.432;4.780;2022-12-10T07:16:53;11.40;;;10.33;;
44145;SDS011;29809;52.432;4.780;2022-12-10T07:19:19;11.53;;;10.43;;
44145;SDS011;29809;52.432;4.780;2022-12-10T07:21:44;10.80;;;9.70;;
44145;SDS011;29809;52.432;4.780;2022-12-10T07:24:12;10.70;;;9.70;;
44145;SDS011;29809;52.432;4.780;2022-12-10T07:26:38;10.80;;;9.70;;
44145;SDS011;29809;52.432;4.780;2022-12-10T07:29:05;10.67;;;9.57;;
44145;SDS011;29809;52.432;4.780;2022-12-10T07:31:30;12.63;;;11.20;;
44145;SDS011;29809;52.432;4.780;2022-12-10T07:33:56;11.10;;;9.50;;
44145;SDS011;29809;52.432;4.780;2022-12-10T07:36:22;11.60;;;10.40;;
44145;SDS011;29809;52.432;4.780;2022-12-10T07:38:48;12.87;;;9.83;;
44145;SDS011;29809;52.432;4.780;2022-12-10T07:41:13;11.60;;;9.80;;
44145;SDS011;29809;52.432;4.780;2022-12-10T07:43:39;11.03;;;9.93;;
44145;SDS011;29809;52.432;4.780;2022-12-10T07:48:30;10.17;;;9.17;;
44145;SDS011;29809;52.432;4.780;2022-12-10T07:50:56;11.33;;;10.00;;
44145;SDS011;29809;52.432;4.780;2022-12-10T07:53:22;10.23;;;9.23;;
44145;SDS011;29809;52.432;4.780;2022-12-10T07:55:47;10.30;;;9.30;;
44145;SDS011;29809;52.432;4.780;2022-12-10T07:58:12;97.30;;;32.00;;
44145;SDS011;29809;52.432;4.780;2022-12-10T08:00:37;91.07;;;34.00;;
44145;SDS011;29809;52.432;4.780;2022-12-10T08:03:03;94.17;;;35.67;;
44145;SDS011;29809;52.432;4.780;2022-12-10T08:05:28;85.63;;;31.07;;
44145;SDS011;29809;52.432;4.780;2022-12-10T08:07:53;68.60;;;29.63;;
44145;SDS011;29809;52.432;4.780;2022-12-10T08:10:18;68.93;;;30.07;;
44145;SDS011;29809;52.432;4.780;2022-12-10T08:12:44;62.27;;;27.70;;
44145;SDS011;29809;52.432;4.780;2022-12-10T08:15:09;63.03;;;26.10;;
44145;SDS011;29809;52.432;4.780;2022-12-10T08:17:34;58.30;;;24.03;;
44145;SDS011;29809;52.432;4.780;2022-12-10T08:20:00;50.80;;;23.53;;
44145;SDS011;29809;52.432;4.780;2022-12-10T08:22:25;55.80;;;23.13;;
44145;SDS011;29809;52.432;4.780;2022-12-10T08:24:50;41.93;;;20.03;;
44145;SDS011;29809;52.432;4.780;2022-12-10T08:27:16;34.03;;;18.17;;
44145;SDS011;29809;52.432;4.780;2022-12-10T08:29:41;38.70;;;18.07;;
44145;SDS011;29809;52.432;4.780;2022-12-10T08:32:06;33.87;;;18.10;;
44145;SDS011;29809;52.432;4.780;2022-12-10T08:34:31;29.63;;;17.00;;
44145;SDS011;29809;52.432;4.780;2022-12-10T08:36:57;31.60;;;16.00;;
44145;SDS011;29809;52.432;4.780;2022-12-10T08:39:22;31.20;;;15.63;;
44145;SDS011;29809;52.432;4.780;2022-12-10T08:41:47;29.00;;;17.17;;
44145;SDS011;29809;52.432;4.780;2022-12-10T08:44:13;27.57;;;15.87;;
44145;SDS011;29809;52.432;4.780;2022-12-10T08:46:38;29.37;;;15.90;;
44145;SDS011;29809;52.432;4.780;2022-12-10T08:49:04;24.40;;;13.77;;
44145;SDS011;29809;52.432;4.780;2022-12-10T08:51:30;27.57;;;14.37;;
44145;SDS011;29809;52.432;4.780;2022-12-10T08:53:55;21.50;;;14.07;;
44145;SDS011;29809;52.432;4.780;2022-12-10T08:56:21;23.83;;;15.30;;
44145;SDS011;29809;52.432;4.780;2022-12-10T08:58:46;19.27;;;13.80;;
44145;SDS011;29809;52.432;4.780;2022-12-10T09:01:15;18.63;;;12.87;;
44145;SDS011;29809;52.432;4.780;2022-12-10T09:03:40;18.23;;;12.40;;
44145;SDS011;29809;52.432;4.780;2022-12-10T09:06:07;19.23;;;13.47;;
44145;SDS011;29809;52.432;4.780;2022-12-10T09:08:32;18.87;;;12.97;;
44145;SDS011;29809;52.432;4.780;2022-12-10T09:10:57;18.83;;;12.20;;
44145;SDS011;29809;52.432;4.780;2022-12-10T09:13:23;19.07;;;12.50;;
44145;SDS011;29809;52.432;4.780;2022-12-10T09:15:48;17.00;;;12.13;;
44145;SDS011;29809;52.432;4.780;2022-12-10T09:18:14;13.77;;;11.67;;
44145;SDS011;29809;52.432;4.780;2022-12-10T09:20:39;18.93;;;13.10;;
44145;SDS011;29809;52.432;4.780;2022-12-10T09:23:04;15.43;;;11.90;;
44145;SDS011;29809;52.432;4.780;2022-12-10T09:25:30;17.07;;;11.77;;
44145;SDS011;29809;52.432;4.780;2022-12-10T09:27:55;14.93;;;11.50;;
44145;SDS011;29809;52.432;4.780;2022-12-10T09:30:20;15.53;;;11.83;;
44145;SDS011;29809;52.432;4.780;2022-12-10T09:32:45;14.53;;;11.27;;
44145;SDS011;29809;52.432;4.780;2022-12-10T09:35:11;14.10;;;10.77;;
44145;SDS011;29809;52.432;4.780;2022-12-10T09:37:36;14.80;;;10.40;;
44145;SDS011;29809;52.432;4.780;2022-12-10T09:40:01;15.93;;;11.23;;
44145;SDS011;29809;52.432;4.780;2022-12-10T09:47:50;12.77;;;10.80;;
44145;SDS011;29809;52.432;4.780;2022-12-10T09:50:20;11.57;;;10.20;;
44145;SDS011;29809;52.432;4.780;2022-12-10T09:52:48;11.97;;;10.77;;
44145;SDS011;29809;52.432;4.780;2022-12-10T09:55:18;12.87;;;11.17;;
44145;SDS011;29809;52.432;4.780;2022-12-10T09:57:53;13.30;;;11.10;;
44145;SDS011;29809;52.432;4.780;2022-12-10T10:00:35;13.10;;;10.93;;
44145;SDS011;29809;52.432;4.780;2022-12-10T10:03:02;12.93;;;11.23;;
44145;SDS011;29809;52.432;4.780;2022-12-10T10:05:28;12.50;;;11.20;;
44145;SDS011;29809;52.432;4.780;2022-12-10T10:07:55;13.50;;;11.63;;
44145;SDS011;29809;52.432;4.780;2022-12-10T10:12:46;12.13;;;10.77;;
44145;SDS011;29809;52.432;4.780;2022-12-10T10:15:15;13.90;;;11.03;;
44145;SDS011;29809;52.432;4.780;2022-12-10T10:17:41;13.00;;;11.33;;
44145;SDS011;29809;52.432;4.780;2022-12-10T10:20:10;13.93;;;11.53;;
44145;SDS011;29809;52.432;4.780;2022-12-10T10:22:36;14.00;;;12.10;;
44145;SDS011;29809;52.432;4.780;2022-12-10T10:25:01;14.37;;;12.87;;
44145;SDS011;29809;52.432;4.780;2022-12-10T10:27:28;12.93;;;11.30;;
44145;SDS011;29809;52.432;4.780;2022-12-10T10:29:55;12.70;;;11.40;;
44145;SDS011;29809;52.432;4.780;2022-12-10T10:34:47;16.40;;;11.97;;
44145;SDS011;29809;52.432;4.780;2022-12-10T10:37:19;15.07;;;11.93;;
44145;SDS011;29809;52.432;4.780;2022-12-10T10:39:49;14.70;;;12.13;;
44145;SDS011;29809;52.432;4.780;2022-12-10T10:42:20;12.67;;;11.37;;
44145;SDS011;29809;52.432;4.780;2022-12-10T10:44:46;12.70;;;11.30;;
44145;SDS011;29809;52.432;4.780;2022-12-10T10:47:32;13.70;;;12.02;;
44145;SDS011;29809;52.432;4.780;2022-12-10T10:49:57;16.30;;;11.87;;
44145;SDS011;29809;52.432;4.780;2022-12-10T10:52:23;12.37;;;11.07;;
44145;SDS011;29809;52.432;4.780;2022-12-10T10:54:52;14.90;;;12.33;;
44145;SDS011;29809;52.432;4.780;2022-12-10T10:57:38;13.23;;;11.50;;
44145;SDS011;29809;52.432;4.780;2022-12-10T11:02:33;11.60;;;10.33;;
44145;SDS011;29809;52.432;4.780;2022-12-10T11:05:04;13.17;;;10.90;;
44145;SDS011;29809;52.432;4.780;2022-12-10T11:09:58;13.87;;;12.23;;
44145;SDS011;29809;52.432;4.780;2022-12-10T11:14:49;12.35;;;11.05;;
44145;SDS011;29809;52.432;4.780;2022-12-10T11:19:43;12.80;;;11.27;;
44145;SDS011;29809;52.432;4.780;2022-12-10T11:22:42;12.77;;;10.73;;
44145;SDS011;29809;52.432;4.780;2022-12-10T11:25:00;12.07;;;10.73;;
44145;SDS011;29809;52.432;4.780;2022-12-10T11:42:41;13.60;;;11.23;;
44145;SDS011;29809;52.432;4.780;2022-12-10T11:45:18;11.90;;;10.63;;
44145;SDS011;29809;52.432;4.780;2022-12-10T11:47:54;12.98;;;10.60;;
44145;SDS011;29809;52.432;4.780;2022-12-10T11:50:26;12.50;;;10.75;;
44145;SDS011;29809;52.432;4.780;2022-12-10T12:00:28;12.20;;;10.88;;
44145;SDS011;29809;52.432;4.780;2022-12-10T12:05:48;12.40;;;10.90;;
44145;SDS011;29809;52.432;4.780;2022-12-10T12:08:21;14.57;;;12.00;;
44145;SDS011;29809;52.432;4.780;2022-12-10T12:11:05;18.33;;;12.30;;
44145;SDS011;29809;52.432;4.780;2022-12-10T12:13:36;15.90;;;12.45;;
44145;SDS011;29809;52.432;4.780;2022-12-10T12:16:07;17.05;;;12.80;;
44145;SDS011;29809;52.432;4.780;2022-12-10T12:21:12;15.48;;;11.38;;
44145;SDS011;29809;52.432;4.780;2022-12-10T12:23:58;12.95;;;11.40;;
44145;SDS011;29809;52.432;4.780;2022-12-10T12:26:26;14.87;;;11.60;;
44145;SDS011;29809;52.432;4.780;2022-12-10T12:31:20;12.43;;;10.45;;
44145;SDS011;29809;52.432;4.780;2022-12-10T12:33:53;12.70;;;10.80;;
44145;SDS011;29809;52.432;4.780;2022-12-10T12:36:21;12.33;;;10.40;;
44145;SDS011;29809;52.432;4.780;2022-12-10T12:41:40;13.27;;;10.43;;
44145;SDS011;29809;52.432;4.780;2022-12-10T12:46:35;15.98;;;10.63;;
44145;SDS011;29809;52.432;4.780;2022-12-10T12:51:49;11.98;;;9.73;;
44145;SDS011;29809;52.432;4.780;2022-12-10T12:54:16;11.43;;;9.98;;
44145;SDS011;29809;52.432;4.780;2022-12-10T12:57:02;13.00;;;9.50;;
44145;SDS011;29809;52.432;4.780;2022-12-10T13:01:57;17.58;;;11.15;;
44145;SDS011;29809;52.432;4.780;2022-12-10T13:04:25;16.05;;;10.20;;
44145;SDS011;29809;52.432;4.780;2022-12-10T13:09:38;16.23;;;10.38;;
44145;SDS011;29809;52.432;4.780;2022-12-10T13:12:18;14.35;;;10.40;;
44145;SDS011;29809;52.432;4.780;2022-12-10T13:14:56;14.23;;;10.13;;
44145;SDS011;29809;52.432;4.780;2022-12-10T13:19:53;16.33;;;10.73;;
44145;SDS011;29809;52.432;4.780;2022-12-10T13:25:11;12.07;;;10.27;;
44145;SDS011;29809;52.432;4.780;2022-12-10T13:27:37;13.33;;;11.03;;
44145;SDS011;29809;52.432;4.780;2022-12-10T13:42:36;13.43;;;10.50;;
44145;SDS011;29809;52.432;4.780;2022-12-10T13:47:47;14.33;;;11.30;;
44145;SDS011;29809;52.432;4.780;2022-12-10T14:05:22;14.57;;;12.03;;
44145;SDS011;29809;52.432;4.780;2022-12-10T14:07:50;12.10;;;10.83;;
44145;SDS011;29809;52.432;4.780;2022-12-10T14:10:17;13.67;;;10.87;;
44145;SDS011;29809;52.432;4.780;2022-12-10T14:12:43;13.87;;;11.27;;
44145;SDS011;29809;52.432;4.780;2022-12-10T14:15:15;11.83;;;10.60;;
44145;SDS011;29809;52.432;4.780;2022-12-10T14:17:43;13.73;;;10.97;;
44145;SDS011;29809;52.432;4.780;2022-12-10T14:20:14;13.37;;;11.90;;
44145;SDS011;29809;52.432;4.780;2022-12-10T14:22:44;12.70;;;10.43;;
44145;SDS011;29809;52.432;4.780;2022-12-10T14:25:11;13.20;;;10.77;;
44145;SDS011;29809;52.432;4.780;2022-12-10T14:27:37;13.13;;;11.30;;
44145;SDS011;29809;52.432;4.780;2022-12-10T14:30:04;13.00;;;11.60;;
44145;SDS011;29809;52.432;4.780;2022-12-10T14:32:33;13.93;;;11.10;;
44145;SDS011;29809;52.432;4.780;2022-12-10T14:34:59;12.63;;;10.90;;
44145;SDS011;29809;52.432;4.780;2022-12-10T14:37:26;13.57;;;11.50;;
44145;SDS011;29809;52.432;4.780;2022-12-10T14:39:52;13.23;;;10.77;;
44145;SDS011;29809;52.432;4.780;2022-12-10T14:42:17;13.53;;;11.37;;
44145;SDS011;29809;52.432;4.780;2022-12-10T14:44:43;13.10;;;11.13;;
44145;SDS011;29809;52.432;4.780;2022-12-10T14:49:38;14.50;;;10.83;;
44145;SDS011;29809;52.432;4.780;2022-12-10T14:52:08;11.70;;;10.50;;
44145;SDS011;29809;52.432;4.780;2022-12-10T14:54:35;14.33;;;12.00;;
44145;SDS011;29809;52.432;4.780;2022-12-10T14:57:02;14.37;;;11.47;;
44145;SDS011;29809;52.432;4.780;2022-12-10T15:02:21;13.23;;;11.50;;
44145;SDS011;29809;52.432;4.780;2022-12-10T15:04:47;13.40;;;11.60;;
44145;SDS011;29809;52.432;4.780;2022-12-10T15:07:20;15.30;;;12.03;;
44145;SDS011;29809;52.432;4.780;2022-12-10T15:09:47;15.07;;;11.97;;
44145;SDS011;29809;52.432;4.780;2022-12-10T15:12:15;15.23;;;11.87;;
44145;SDS011;29809;52.432;4.780;2022-12-10T15:14:44;14.53;;;11.93;;
44145;SDS011;29809;52.432;4.780;2022-12-10T15:19:57;17.00;;;12.93;;
44145;SDS011;29809;52.432;4.780;2022-12-10T15:22:25;14.43;;;11.73;;
44145;SDS011;29809;52.432;4.780;2022-12-10T15:24:51;15.27;;;12.47;;
44145;SDS011;29809;52.432;4.780;2022-12-10T15:27:18;15.20;;;11.73;;
44145;SDS011;29809;52.432;4.780;2022-12-10T15:29:44;16.53;;;13.37;;
44145;SDS011;29809;52.432;4.780;2022-12-10T15:32:11;16.83;;;13.03;;
44145;SDS011;29809;52.432;4.780;2022-12-10T15:34:49;15.33;;;11.57;;
44145;SDS011;29809;52.432;4.780;2022-12-10T15:37:24;14.60;;;12.83;;
44145;SDS011;29809;52.432;4.780;2022-12-10T15:39:59;15.20;;;12.23;;
44145;SDS011;29809;52.432;4.780;2022-12-10T15:44:59;14.33;;;12.03;;
44145;SDS011;29809;52.432;4.780;2022-12-10T15:47:25;14.93;;;12.80;;
44145;SDS011;29809;52.432;4.780;2022-12-10T15:49:52;15.57;;;12.13;;
44145;SDS011;29809;52.432;4.780;2022-12-10T15:52:22;17.37;;;12.93;;
44145;SDS011;29809;52.432;4.780;2022-12-10T15:54:49;16.50;;;12.70;;
44145;SDS011;29809;52.432;4.780;2022-12-10T15:57:19;14.17;;;12.33;;
44145;SDS011;29809;52.432;4.780;2022-12-10T15:59:45;16.07;;;13.23;;
44145;SDS011;29809;52.432;4.780;2022-12-10T16:04:39;15.07;;;12.13;;
44145;SDS011;29809;52.432;4.780;2022-12-10T16:07:04;15.43;;;11.73;;
44145;SDS011;29809;52.432;4.780;2022-12-10T16:09:32;13.30;;;11.40;;
44145;SDS011;29809;52.432;4.780;2022-12-10T16:11:57;15.07;;;12.07;;
44145;SDS011;29809;52.432;4.780;2022-12-10T16:14:22;17.47;;;12.90;;
44145;SDS011;29809;52.432;4.780;2022-12-10T16:16:47;15.77;;;12.90;;
44145;SDS011;29809;52.432;4.780;2022-12-10T16:19:13;15.93;;;12.63;;
44145;SDS011;29809;52.432;4.780;2022-12-10T16:21:38;15.33;;;12.80;;
44145;SDS011;29809;52.432;4.780;2022-12-10T16:24:03;18.13;;;13.43;;